Fure West — OZ2100 — position and weather

sailwx.info

Track history (hours):
 
Tides and Currents Weather Stations Pressure Air Temp Water Temp Dewpoint Dewpoint Depression Visibility Wind Speed Wind Dir Waves Ship Positions

Fure West

Last reported at 2014-Oct-25 09:28 UTC. Time now 2014-Oct-25 10:22 UTC.
Position N 51°55' E 004°13'.

Length 144 m; draft 6 m.

Type: Tanker. MMSI: 231775000.

Date/timePositionNaut miles runAvg speedWind from/ knotsBaromVisibWave heightAir tempDewpointWater temp
2014-Oct-25 09:28N 51°55' E 004°13'0 0.0
2014-Oct-25 08:31N 51°55' E 004°13'0 0.0
2014-Oct-25 07:31N 51°55' E 004°13'0 0.0
2014-Oct-25 06:31N 51°55' E 004°13'0 0.0
2014-Oct-25 05:28N 51°55' E 004°13'0 0.0
2014-Oct-25 04:31N 51°55' E 004°13'0 0.0
2014-Oct-25 03:31N 51°55' E 004°13'0 0.0
2014-Oct-25 02:31N 51°55' E 004°13'0 0.0
2014-Oct-25 01:31N 51°55' E 004°13'0 0.0
2014-Oct-25 00:31N 51°55' E 004°13'0 0.0
2014-Oct-24 23:33N 51°55' E 004°13'1 1.4
2014-Oct-24 22:33N 51°56' E 004°11'9 9.2
2014-Oct-24 21:33N 52°00' E 003°58'10 9.7
2014-Oct-24 20:33N 52°05' E 003°44'3 2.6
2014-Oct-24 19:26N 52°08' E 003°42'0 0.0
2014-Oct-24 18:26N 52°08' E 003°42'0 0.0
2014-Oct-24 13:14N 52°07' E 003°42'0 0.0
2014-Oct-24 12:26N 52°07' E 003°42'0 0.0
2014-Oct-24 11:32N 52°07' E 003°42'0 0.0
2014-Oct-24 10:32N 52°08' E 003°42'0 0.0
2014-Oct-24 05:14N 52°08' E 003°42'0 0.0
2014-Oct-24 00:22N 52°07' E 003°42'0 0.2
2014-Oct-23 23:33N 52°07' E 003°42'10 9.7
2014-Oct-23 22:33N 52°02' E 003°55'1211.6
2014-Oct-23 21:33N 51°56' E 004°11'2 1.6
2014-Oct-23 20:33N 51°55' E 004°13'0 0.0
2014-Oct-23 19:27N 51°55' E 004°13'0 0.0
2014-Oct-23 18:30N 51°55' E 004°13'0 0.0
2014-Oct-23 17:33N 51°55' E 004°13'0 0.0
2014-Oct-23 16:30N 51°55' E 004°13'0 0.0
2014-Oct-23 15:30N 51°55' E 004°13'0 0.0
2014-Oct-23 14:30N 51°55' E 004°13'0 0.0
2014-Oct-23 13:33N 51°55' E 004°13'0 0.0
2014-Oct-23 12:33N 51°55' E 004°13'0 0.0
2014-Oct-23 11:30N 51°55' E 004°13'0 0.0
2014-Oct-23 10:12N 51°55' E 004°13'0 0.0
2014-Oct-23 09:33N 51°55' E 004°13'0 0.0
2014-Oct-23 08:30N 51°55' E 004°13'0 0.0
2014-Oct-23 07:33N 51°55' E 004°13'0 0.0
2014-Oct-23 06:30N 51°55' E 004°13'0 0.0
2014-Oct-23 05:30N 51°55' E 004°13'0 0.0
2014-Oct-23 04:33N 51°55' E 004°13'0 0.0
2014-Oct-23 03:33N 51°55' E 004°13'0 0.0
2014-Oct-23 02:24N 51°55' E 004°13'0 0.0
2014-Oct-23 01:24N 51°55' E 004°13'0 0.0
2014-Oct-23 00:30N 51°55' E 004°13'0 0.0
2014-Oct-22 23:30N 51°55' E 004°13'0 0.0
2014-Oct-22 22:33N 51°55' E 004°13'5 5.3
2014-Oct-22 21:33N 51°58' E 004°06'1110.7
2014-Oct-22 20:34N 52°01' E 003°49'12 9.6
2014-Oct-22 19:22N 52°08' E 003°34'2 0.3
2014-Oct-22 10:30N 52°10' E 003°34'0 0.0
2014-Oct-22 09:30N 52°10' E 003°33'0 0.5
2014-Oct-22 08:32N 52°11' E 003°34'2 0.6
2014-Oct-22 05:33N 52°13' E 003°33'1 0.9
2014-Oct-22 04:21N 52°13' E 003°35'1 0.6
2014-Oct-22 03:23N 52°13' E 003°36'1 0.4
2014-Oct-22 01:30N 52°13' E 003°36'1 1.1
2014-Oct-22 00:30N 52°11' E 003°36'1 1.2
2014-Oct-21 23:24N 52°11' E 003°34'1 0.8
2014-Oct-21 22:30N 52°11' E 003°33'0 0.2
2014-Oct-21 21:21N 52°11' E 003°33'0 0.3
2014-Oct-21 20:30N 52°11' E 003°33'0 0.3
2014-Oct-21 19:23N 52°11' E 003°33'0 0.1
2014-Oct-21 18:33N 52°11' E 003°33'1 0.9
2014-Oct-21 17:16N 52°11' E 003°34'1 0.8
2014-Oct-21 16:33N 52°12' E 003°35'0 0.1
2014-Oct-21 15:33N 52°12' E 003°35'1 0.9
2014-Oct-21 14:32N 52°11' E 003°35'117 7.3
2014-Oct-20 22:32N 54°03' E 004°32'1110.7
2014-Oct-20 21:32N 54°04' E 004°50'1010.4
2014-Oct-20 20:33N 54°05' E 005°08'9 9.3
2014-Oct-20 19:33N 54°06' E 005°23'8 7.8
2014-Oct-20 18:32N 54°08' E 005°37'7 7.4
2014-Oct-20 17:32N 54°09' E 005°49'42 8.0
2014-Oct-20 12:16N 54°12' E 007°01'6 8.7
2014-Oct-20 11:33N 54°12' E 007°11'8 8.4
2014-Oct-20 10:33N 54°12' E 007°26'7 7.0
2014-Oct-20 09:33N 54°10' E 007°37'7 6.6
2014-Oct-20 08:33N 54°07' E 007°47'7 6.8
2014-Oct-20 07:33N 54°04' E 007°57'7 6.8
2014-Oct-20 06:33N 54°01' E 008°07'9 8.9
2014-Oct-20 05:33N 53°60' E 008°22'1010.3
2014-Oct-20 04:34N 53°57' E 008°39'1313.3
2014-Oct-20 03:33N 53°51' E 008°60'6 5.7
2014-Oct-20 02:33N 53°54' E 009°09'5 4.6
2014-Oct-20 01:28N 53°57' E 009°14'26 5.2
2014-Oct-19 20:30N 54°18' E 009°41'6 5.9
2014-Oct-19 19:33N 54°22' E 009°48'6 6.3
2014-Oct-19 18:33N 54°21' E 009°59'6 5.8
2014-Oct-19 17:33N 54°22' E 010°08'1 1.5
2014-Oct-19 16:33N 54°22' E 010°11'10 9.9
2014-Oct-19 15:33N 54°31' E 010°20'1211.9
2014-Oct-19 14:33N 54°35' E 010°39'2812.2
2014-Oct-19 12:15N 54°31' E 011°27'1112.8
2014-Oct-19 11:23N 54°27' E 011°45'1012.4
2014-Oct-19 10:33N 54°26' E 012°02'8910.9
2014-Oct-19 02:25N 54°38' E 014°34'1011.8
2014-Oct-19 01:33N 54°40' E 014°51'1311.8
2014-Oct-19 00:29N 54°42' E 015°13'2612.0
2014-Oct-18 22:21N 54°46' E 015°56'2712.0
2014-Oct-18 20:09N 54°50' E 016°42'4812.4
2014-Oct-18 16:13N 54°59' E 018°05'912.6
2014-Oct-18 15:33N 54°58' E 018°20'1212.4
2014-Oct-18 14:33N 54°57' E 018°41'1312.5
2014-Oct-18 13:33N 54°53' E 019°02'1313.1
2014-Oct-18 12:33N 54°49' E 019°23'1312.6
2014-Oct-18 11:33N 54°43' E 019°42'9 9.5
2014-Oct-18 10:34N 54°38' E 019°56'1 0.0
2014-Oct-17 15:09N 54°38' E 019°57'5 8.1
2014-Oct-17 14:33N 54°40' E 019°49'4 3.7
2014-Oct-17 13:33N 54°40' E 019°43'4 3.7
2014-Oct-17 12:33N 54°43' E 019°40'1414.1
2014-Oct-17 11:33N 54°48' E 019°17'1414.0
2014-Oct-17 10:34N 54°53' E 018°54'1414.3
2014-Oct-17 09:34N 54°58' E 018°31'1414.2
2014-Oct-17 08:34N 54°57' E 018°06'1614.1
2014-Oct-17 07:27N 54°56' E 017°39'17913.8
2014-Oct-16 18:28N 54°39' E 012°29'1213.3
2014-Oct-16 17:33N 54°30' E 012°16'1312.5
2014-Oct-16 16:33N 54°25' E 011°56'  
Track history (hours):
 
Tides and Currents Weather Stations Pressure Air Temp Water Temp Dewpoint Dewpoint Depression Visibility Wind Speed Wind Dir Waves Ship Positions

Fure West

Last reported at 2014-Oct-25 09:28 UTC. Time now 2014-Oct-25 10:22 UTC.
Position N 51°55' E 004°13'.

Length 144 m; draft 6 m.

Type: Tanker. MMSI: 231775000.

Date/timePositionNaut miles runAvg speedWind from/ knotsBaromVisibWave heightAir tempDewpointWater temp
2014-Oct-25 09:28N 51°55' E 004°13'0 0.0
2014-Oct-25 08:31N 51°55' E 004°13'0 0.0
2014-Oct-25 07:31N 51°55' E 004°13'0 0.0
2014-Oct-25 06:31N 51°55' E 004°13'0 0.0
2014-Oct-25 05:28N 51°55' E 004°13'0 0.0
2014-Oct-25 04:31N 51°55' E 004°13'0 0.0
2014-Oct-25 03:31N 51°55' E 004°13'0 0.0
2014-Oct-25 02:31N 51°55' E 004°13'0 0.0
2014-Oct-25 01:31N 51°55' E 004°13'0 0.0
2014-Oct-25 00:31N 51°55' E 004°13'0 0.0
2014-Oct-24 23:33N 51°55' E 004°13'1 1.4
2014-Oct-24 22:33N 51°56' E 004°11'9 9.2
2014-Oct-24 21:33N 52°00' E 003°58'10 9.7
2014-Oct-24 20:33N 52°05' E 003°44'3 2.6
2014-Oct-24 19:26N 52°08' E 003°42'0 0.0
2014-Oct-24 18:26N 52°08' E 003°42'0 0.0
2014-Oct-24 13:14N 52°07' E 003°42'0 0.0
2014-Oct-24 12:26N 52°07' E 003°42'0 0.0
2014-Oct-24 11:32N 52°07' E 003°42'0 0.0
2014-Oct-24 10:32N 52°08' E 003°42'0 0.0
2014-Oct-24 05:14N 52°08' E 003°42'0 0.0
2014-Oct-24 00:22N 52°07' E 003°42'0 0.2
2014-Oct-23 23:33N 52°07' E 003°42'10 9.7
2014-Oct-23 22:33N 52°02' E 003°55'1211.6
2014-Oct-23 21:33N 51°56' E 004°11'2 1.6
2014-Oct-23 20:33N 51°55' E 004°13'0 0.0
2014-Oct-23 19:27N 51°55' E 004°13'0 0.0
2014-Oct-23 18:30N 51°55' E 004°13'0 0.0
2014-Oct-23 17:33N 51°55' E 004°13'0 0.0
2014-Oct-23 16:30N 51°55' E 004°13'0 0.0
2014-Oct-23 15:30N 51°55' E 004°13'0 0.0
2014-Oct-23 14:30N 51°55' E 004°13'0 0.0
2014-Oct-23 13:33N 51°55' E 004°13'0 0.0
2014-Oct-23 12:33N 51°55' E 004°13'0 0.0
2014-Oct-23 11:30N 51°55' E 004°13'0 0.0
2014-Oct-23 10:12N 51°55' E 004°13'0 0.0
2014-Oct-23 09:33N 51°55' E 004°13'0 0.0
2014-Oct-23 08:30N 51°55' E 004°13'0 0.0
2014-Oct-23 07:33N 51°55' E 004°13'0 0.0
2014-Oct-23 06:30N 51°55' E 004°13'0 0.0
2014-Oct-23 05:30N 51°55' E 004°13'0 0.0
2014-Oct-23 04:33N 51°55' E 004°13'0 0.0
2014-Oct-23 03:33N 51°55' E 004°13'0 0.0
2014-Oct-23 02:24N 51°55' E 004°13'0 0.0
2014-Oct-23 01:24N 51°55' E 004°13'0 0.0
2014-Oct-23 00:30N 51°55' E 004°13'0 0.0
2014-Oct-22 23:30N 51°55' E 004°13'0 0.0
2014-Oct-22 22:33N 51°55' E 004°13'5 5.3
2014-Oct-22 21:33N 51°58' E 004°06'1110.7
2014-Oct-22 20:34N 52°01' E 003°49'12 9.6
2014-Oct-22 19:22N 52°08' E 003°34'2 0.3
2014-Oct-22 10:30N 52°10' E 003°34'0 0.0
2014-Oct-22 09:30N 52°10' E 003°33'0 0.5
2014-Oct-22 08:32N 52°11' E 003°34'2 0.6
2014-Oct-22 05:33N 52°13' E 003°33'1 0.9
2014-Oct-22 04:21N 52°13' E 003°35'1 0.6
2014-Oct-22 03:23N 52°13' E 003°36'1 0.4
2014-Oct-22 01:30N 52°13' E 003°36'1 1.1
2014-Oct-22 00:30N 52°11' E 003°36'1 1.2
2014-Oct-21 23:24N 52°11' E 003°34'1 0.8
2014-Oct-21 22:30N 52°11' E 003°33'0 0.2
2014-Oct-21 21:21N 52°11' E 003°33'0 0.3
2014-Oct-21 20:30N 52°11' E 003°33'0 0.3
2014-Oct-21 19:23N 52°11' E 003°33'0 0.1
2014-Oct-21 18:33N 52°11' E 003°33'1 0.9
2014-Oct-21 17:16N 52°11' E 003°34'1 0.8
2014-Oct-21 16:33N 52°12' E 003°35'0 0.1
2014-Oct-21 15:33N 52°12' E 003°35'1 0.9
2014-Oct-21 14:32N 52°11' E 003°35'117 7.3
2014-Oct-20 22:32N 54°03' E 004°32'1110.7
2014-Oct-20 21:32N 54°04' E 004°50'1010.4
2014-Oct-20 20:33N 54°05' E 005°08'9 9.3
2014-Oct-20 19:33N 54°06' E 005°23'8 7.8
2014-Oct-20 18:32N 54°08' E 005°37'7 7.4
2014-Oct-20 17:32N 54°09' E 005°49'42 8.0
2014-Oct-20 12:16N 54°12' E 007°01'6 8.7
2014-Oct-20 11:33N 54°12' E 007°11'8 8.4
2014-Oct-20 10:33N 54°12' E 007°26'7 7.0
2014-Oct-20 09:33N 54°10' E 007°37'7 6.6
2014-Oct-20 08:33N 54°07' E 007°47'7 6.8
2014-Oct-20 07:33N 54°04' E 007°57'7 6.8
2014-Oct-20 06:33N 54°01' E 008°07'9 8.9
2014-Oct-20 05:33N 53°60' E 008°22'1010.3
2014-Oct-20 04:34N 53°57' E 008°39'1313.3
2014-Oct-20 03:33N 53°51' E 008°60'6 5.7
2014-Oct-20 02:33N 53°54' E 009°09'5 4.6
2014-Oct-20 01:28N 53°57' E 009°14'26 5.2
2014-Oct-19 20:30N 54°18' E 009°41'6 5.9
2014-Oct-19 19:33N 54°22' E 009°48'6 6.3
2014-Oct-19 18:33N 54°21' E 009°59'6 5.8
2014-Oct-19 17:33N 54°22' E 010°08'1 1.5
2014-Oct-19 16:33N 54°22' E 010°11'10 9.9
2014-Oct-19 15:33N 54°31' E 010°20'1211.9
2014-Oct-19 14:33N 54°35' E 010°39'2812.2
2014-Oct-19 12:15N 54°31' E 011°27'1112.8
2014-Oct-19 11:23N 54°27' E 011°45'1012.4
2014-Oct-19 10:33N 54°26' E 012°02'8910.9
2014-Oct-19 02:25N 54°38' E 014°34'1011.8
2014-Oct-19 01:33N 54°40' E 014°51'1311.8
2014-Oct-19 00:29N 54°42' E 015°13'2612.0
2014-Oct-18 22:21N 54°46' E 015°56'2712.0
2014-Oct-18 20:09N 54°50' E 016°42'4812.4
2014-Oct-18 16:13N 54°59' E 018°05'912.6
2014-Oct-18 15:33N 54°58' E 018°20'1212.4
2014-Oct-18 14:33N 54°57' E 018°41'1312.5
2014-Oct-18 13:33N 54°53' E 019°02'1313.1
2014-Oct-18 12:33N 54°49' E 019°23'1312.6
2014-Oct-18 11:33N 54°43' E 019°42'9 9.5
2014-Oct-18 10:34N 54°38' E 019°56'1 0.0
2014-Oct-17 15:09N 54°38' E 019°57'5 8.1
2014-Oct-17 14:33N 54°40' E 019°49'4 3.7
2014-Oct-17 13:33N 54°40' E 019°43'4 3.7
2014-Oct-17 12:33N 54°43' E 019°40'1414.1
2014-Oct-17 11:33N 54°48' E 019°17'1414.0
2014-Oct-17 10:34N 54°53' E 018°54'1414.3
2014-Oct-17 09:34N 54°58' E 018°31'1414.2
2014-Oct-17 08:34N 54°57' E 018°06'1614.1
2014-Oct-17 07:27N 54°56' E 017°39'17913.8
2014-Oct-16 18:28N 54°39' E 012°29'1213.3
2014-Oct-16 17:33N 54°30' E 012°16'1312.5
2014-Oct-16 16:33N 54°25' E 011°56'  

Dump ship's entire track history